createdAt,value
2023-05-17T00:01:30.365Z,102421.13
2023-05-17T00:03:58.157Z,102422.97
2023-05-17T00:06:26.467Z,102422.78
2023-05-17T00:08:54.405Z,102428.19
2023-05-17T00:11:22.418Z,102422.16
2023-05-17T00:13:50.222Z,102422.53
2023-05-17T00:16:19.581Z,102423.19
2023-05-17T00:18:47.537Z,102424.22
2023-05-17T00:21:15.466Z,102420.69
2023-05-17T00:23:43.387Z,102422.53
2023-05-17T00:26:11.269Z,102426.28
2023-05-17T00:28:39.149Z,102423.78
2023-05-17T00:31:07.529Z,102423.97
2023-05-17T00:33:36.691Z,102420.63
2023-05-17T00:36:04.965Z,102411.91
2023-05-17T00:38:32.956Z,102416.47
2023-05-17T00:41:00.886Z,102420.19
2023-05-17T00:43:28.792Z,102423.94
2023-05-17T00:45:56.649Z,102423.09
2023-05-17T00:48:26.383Z,102399.38
2023-05-17T00:50:57.349Z,102417.47
2023-05-17T00:53:25.674Z,102414.13
2023-05-17T00:55:55.124Z,102416.00
2023-05-17T00:58:24.013Z,102417.66
2023-05-17T01:00:52.308Z,102426.97
2023-05-17T01:03:22.647Z,102427.63
2023-05-17T01:05:50.905Z,102430.31
2023-05-17T01:08:20.413Z,102423.25
2023-05-17T01:10:58.351Z,102421.38
2023-05-17T01:13:33.443Z,102418.69
2023-05-17T01:16:08.090Z,102420.56
2023-05-17T01:18:41.287Z,102413.50
2023-05-17T01:21:19.252Z,102415.34
2023-05-17T01:24:00.662Z,102422.63
2023-05-17T01:26:39.400Z,102420.13
2023-05-17T01:29:10.294Z,102414.72
2023-05-17T01:31:38.357Z,102410.16
2023-05-17T01:34:08.859Z,102411.38
2023-05-17T01:36:37.300Z,102415.94
2023-05-17T01:39:05.242Z,102415.13
2023-05-17T01:41:41.166Z,102419.88
2023-05-17T01:44:19.885Z,102417.19
2023-05-17T01:46:48.074Z,102420.25
2023-05-17T01:49:23.024Z,102416.72
2023-05-17T01:51:58.769Z,102417.75
2023-05-17T01:54:32.657Z,102408.00
2023-05-17T01:57:06.011Z,102416.09
2023-05-17T01:59:36.156Z,102415.25
2023-05-17T02:02:08.706Z,102413.59
2023-05-17T02:04:37.160Z,102415.66
2023-05-17T02:07:05.368Z,102412.31
2023-05-17T02:09:33.219Z,102408.78
2023-05-17T02:43:36.833Z,102434.22
2023-05-17T02:46:05.052Z,102425.69
2023-05-17T02:48:32.945Z,102413.00
2023-05-17T02:51:00.893Z,102435.66
2023-05-17T02:53:28.722Z,102439.19
2023-05-17T02:55:58.248Z,102447.28
2023-05-17T02:58:26.344Z,102448.31
2023-05-17T03:00:55.643Z,102455.75
2023-05-17T03:03:23.778Z,102461.97
2023-05-17T03:05:51.774Z,102457.59
2023-05-17T03:08:19.593Z,102447.84
2023-05-17T03:10:47.440Z,102453.44
2023-05-17T03:13:15.209Z,102455.09
2023-05-17T03:15:43.029Z,102450.75
2023-05-17T03:18:12.575Z,102450.75
2023-05-17T03:20:40.632Z,102456.34
2023-05-17T03:23:08.474Z,102454.47
2023-05-17T03:25:36.360Z,102461.72
2023-05-17T03:28:04.201Z,102467.13
2023-05-17T03:30:32.174Z,102471.66
2023-05-17T03:33:00.127Z,102463.78
2023-05-17T03:35:29.668Z,102469.38
2023-05-17T03:37:57.636Z,102465.00
2023-05-17T03:40:26.231Z,102465.84
2023-05-17T03:42:54.354Z,102471.41
2023-05-17T03:45:22.303Z,102479.50
2023-05-17T03:47:50.260Z,102482.19
2023-05-17T03:50:18.428Z,102476.16
2023-05-17T03:52:47.639Z,102468.03
2023-05-17T03:55:15.630Z,102468.03
2023-05-17T03:57:43.462Z,102479.69
2023-05-17T04:00:12.777Z,102477.19
2023-05-17T04:02:41.143Z,102484.63
2023-05-17T04:05:09.525Z,102487.34
2023-05-17T04:07:37.372Z,102488.38
2023-05-17T04:10:07.955Z,102488.56
2023-05-17T04:12:36.314Z,102484.84
2023-05-17T04:15:05.130Z,102477.75
2023-05-17T04:17:32.968Z,102491.25
2023-05-17T04:20:00.851Z,102497.66
2023-05-17T04:22:28.641Z,102496.84
2023-05-17T04:24:56.427Z,102499.53
2023-05-17T04:27:25.777Z,102495.13
2023-05-17T04:29:53.596Z,102497.03
2023-05-17T04:32:21.498Z,102506.97
2023-05-17T04:34:49.402Z,102503.25
2023-05-17T04:37:17.267Z,102509.66
2023-05-17T04:39:45.080Z,102517.75
2023-05-17T04:42:13.008Z,102513.59
2023-05-17T04:44:42.165Z,102514.63
2023-05-17T04:47:10.142Z,102524.38
2023-05-17T04:49:38.033Z,102512.69
2023-05-17T04:52:06.558Z,102529.97
2023-05-17T04:54:34.653Z,102530.81
2023-05-17T04:57:03.661Z,102534.53
2023-05-17T04:59:31.493Z,102535.56
2023-05-17T05:02:00.974Z,102537.41
2023-05-17T05:04:28.759Z,102538.25
2023-05-17T05:06:56.584Z,102530.34
2023-05-17T05:09:24.426Z,102544.66
2023-05-17T05:11:52.355Z,102552.94
2023-05-17T05:14:20.200Z,102551.06
2023-05-17T05:16:48.090Z,102550.88
2023-05-17T05:19:17.628Z,102556.28
2023-05-17T05:21:46.953Z,102558.13
2023-05-17T05:24:15.132Z,102553.78
2023-05-17T05:26:43.000Z,102561.66
2023-05-17T05:29:10.840Z,102564.16
2023-05-17T05:31:38.606Z,102558.59
2023-05-17T05:34:06.577Z,102566.50
2023-05-17T05:36:38.231Z,102566.50
2023-05-17T05:39:07.852Z,102574.56
2023-05-17T05:41:36.988Z,102575.59
2023-05-17T05:44:04.994Z,102578.09
2023-05-17T05:46:32.867Z,102578.28
2023-05-17T05:49:01.027Z,102589.31
2023-05-17T05:51:28.938Z,102590.97
2023-05-17T05:53:58.674Z,102587.44
2023-05-17T05:56:28.106Z,102589.97
2023-05-17T05:58:56.054Z,102589.75
2023-05-17T06:01:25.437Z,102596.81
2023-05-17T06:03:53.292Z,102594.13
2023-05-17T06:06:21.324Z,102600.16
2023-05-17T06:08:49.289Z,102601.84
2023-05-17T06:11:20.467Z,102610.75
2023-05-17T06:13:48.435Z,102611.88
2023-05-17T06:16:16.402Z,102608.97
2023-05-17T06:18:44.419Z,102612.13
2023-05-17T06:21:13.451Z,102621.31
2023-05-17T06:23:41.596Z,102626.97
2023-05-17T06:26:10.889Z,102627.63
2023-05-17T06:28:40.254Z,102626.22
2023-05-17T06:31:08.310Z,102626.00
2023-05-17T06:33:36.192Z,102626.47
2023-05-17T06:36:04.073Z,102627.75
2023-05-17T06:38:31.877Z,102625.72
2023-05-17T06:40:59.666Z,102635.28
2023-05-17T06:43:27.540Z,102634.91
2023-05-17T06:45:56.723Z,102629.13
2023-05-17T06:48:25.576Z,102632.47
2023-05-17T06:50:53.761Z,102636.81
2023-05-17T06:53:21.933Z,102637.47
2023-05-17T06:55:49.943Z,102634.38
2023-05-17T06:58:18.024Z,102640.63
2023-05-17T07:00:46.058Z,102636.69
2023-05-17T07:03:16.385Z,102634.44
2023-05-17T07:05:44.509Z,102632.78
2023-05-17T07:08:12.768Z,102642.16
2023-05-17T07:10:41.063Z,102633.88
2023-05-17T07:13:09.188Z,102639.25
2023-05-17T07:15:37.101Z,102650.06
2023-05-17T07:18:05.461Z,102647.75
2023-05-17T07:20:34.772Z,102644.59
2023-05-17T07:23:02.756Z,102646.66
2023-05-17T07:25:30.857Z,102648.72
2023-05-17T07:27:58.992Z,102659.69
2023-05-17T07:30:27.381Z,102654.50
2023-05-17T07:32:55.332Z,102661.09
2023-05-17T07:35:23.248Z,102655.72
2023-05-17T07:37:52.615Z,102665.03
2023-05-17T07:40:20.597Z,102654.53
2023-05-17T07:42:48.506Z,102665.03
2023-05-17T07:45:16.547Z,102670.41
2023-05-17T07:47:44.482Z,102667.91
2023-05-17T07:50:12.828Z,102669.78
2023-05-17T07:52:41.392Z,102674.53
2023-05-17T07:55:11.815Z,102673.69
2023-05-17T07:57:39.911Z,102671.00
2023-05-17T08:00:13.112Z,102678.88
2023-05-17T08:02:41.832Z,102682.44
2023-05-17T08:05:11.057Z,102686.78
2023-05-17T08:07:39.356Z,102678.50
2023-05-17T08:10:08.097Z,102685.38
2023-05-17T08:12:37.473Z,102687.69
2023-05-17T08:15:06.171Z,102678.56
2023-05-17T08:17:34.104Z,102688.16
2023-05-17T08:20:04.875Z,102678.00
2023-05-17T08:22:32.799Z,102674.91
2023-05-17T08:25:00.719Z,102668.63
2023-05-17T08:27:31.264Z,102685.97
2023-05-17T08:30:00.826Z,102681.22
2023-05-17T08:32:29.272Z,102680.00
2023-05-17T08:34:57.901Z,102678.97
2023-05-17T08:37:25.796Z,102677.75
2023-05-17T08:39:53.702Z,102684.81
2023-05-17T08:42:25.214Z,102689.00
2023-05-17T08:44:53.986Z,102687.78
2023-05-17T08:47:32.262Z,102687.59
2023-05-17T08:50:00.740Z,102682.00
2023-05-17T08:52:32.244Z,102694.25
2023-05-17T08:55:01.242Z,102683.91
2023-05-17T08:57:31.502Z,102688.13
2023-05-17T09:00:00.445Z,102690.44
2023-05-17T09:02:32.086Z,102687.53
2023-05-17T09:05:01.045Z,102695.66
2023-05-17T09:07:28.907Z,102688.75
2023-05-17T09:09:56.808Z,102697.25
2023-05-17T09:12:25.829Z,102693.88
2023-05-17T09:14:53.751Z,102699.47
2023-05-17T09:17:22.950Z,102677.16
2023-05-17T09:19:52.375Z,102687.84
2023-05-17T09:22:21.709Z,102678.47
2023-05-17T09:24:50.763Z,102689.78
2023-05-17T09:27:19.635Z,102685.88
2023-05-17T09:29:48.180Z,102681.13
2023-05-17T09:32:17.492Z,102675.47
2023-05-17T09:34:47.045Z,102683.03
2023-05-17T09:37:17.881Z,102686.19
2023-05-17T09:39:47.679Z,102691.38
2023-05-17T09:42:16.859Z,102667.66
2023-05-17T09:44:49.649Z,102687.06
2023-05-17T09:47:25.099Z,102683.97
2023-05-17T09:49:53.248Z,102685.66
2023-05-17T09:52:23.022Z,102685.66
2023-05-17T09:54:55.299Z,102683.78
2023-05-17T09:57:23.818Z,102689.19
2023-05-17T09:59:53.119Z,102686.09
2023-05-17T10:02:28.971Z,102677.59
2023-05-17T10:04:58.543Z,102676.38
2023-05-17T10:07:28.180Z,102682.00
2023-05-17T10:09:57.523Z,102674.16
2023-05-17T10:12:29.515Z,102687.06
2023-05-17T10:14:59.980Z,102689.19
2023-05-17T10:17:29.845Z,102678.81
2023-05-17T10:19:58.997Z,102688.00
2023-05-17T10:22:29.360Z,102690.31
2023-05-17T10:24:58.554Z,102684.94
2023-05-17T10:27:27.143Z,102679.97
2023-05-17T10:29:56.126Z,102680.81
2023-05-17T10:32:27.288Z,102674.16
2023-05-17T10:35:09.252Z,102674.16
2023-05-17T10:37:41.759Z,102675.44
2023-05-17T10:40:14.271Z,102676.28
2023-05-17T10:42:45.940Z,102677.94
2023-05-17T10:45:14.753Z,102671.28
2023-05-17T10:47:45.115Z,102668.38
2023-05-17T10:50:15.474Z,102672.56
2023-05-17T10:52:56.010Z,102657.16
2023-05-17T10:55:26.171Z,102660.72
2023-05-17T10:58:19.944Z,102659.47
2023-05-17T11:00:52.548Z,102664.28
2023-05-17T11:03:23.627Z,102661.38
2023-05-17T11:06:23.415Z,102664.50
2023-05-17T11:12:07.258Z,102658.28
2023-05-17T11:14:47.414Z,102659.13
2023-05-17T11:17:15.883Z,102659.31
2023-05-17T11:19:51.584Z,102653.91
2023-05-17T11:22:19.757Z,102647.47
2023-05-17T11:24:53.091Z,102662.66
2023-05-17T11:27:27.578Z,102655.19
2023-05-17T11:29:56.600Z,102648.56
2023-05-17T11:32:29.305Z,102658.56
2023-05-17T11:34:57.698Z,102648.59
2023-05-17T11:37:29.740Z,102643.59
2023-05-17T11:40:06.003Z,102646.13
2023-05-17T11:42:35.838Z,102638.22
2023-05-17T11:45:04.156Z,102650.72
2023-05-17T11:47:32.437Z,102651.34
2023-05-17T11:50:03.144Z,102648.22
2023-05-17T11:52:32.579Z,102635.53
2023-05-17T11:55:01.519Z,102652.22
2023-05-17T11:57:31.353Z,102655.53
2023-05-17T12:00:05.895Z,102643.03
2023-05-17T12:02:34.138Z,102638.88
2023-05-17T12:05:02.373Z,102644.50
2023-05-17T12:07:30.648Z,102641.81
2023-05-17T12:09:58.742Z,102633.91
2023-05-17T12:12:29.864Z,102635.78
2023-05-17T12:14:58.775Z,102632.00
2023-05-17T12:17:36.899Z,102639.72
2023-05-17T12:20:09.131Z,102638.69
2023-05-17T12:22:52.850Z,102639.09
2023-05-17T12:25:23.407Z,102640.78
2023-05-17T12:27:51.588Z,102642.00
2023-05-17T12:30:20.407Z,102643.06
2023-05-17T12:32:49.753Z,102625.97
2023-05-17T12:35:17.758Z,102621.81
2023-05-17T12:37:45.933Z,102634.09
2023-05-17T12:40:14.222Z,102635.56
2023-05-17T12:42:43.831Z,102635.97
2023-05-17T12:45:13.699Z,102638.47
2023-05-17T12:47:41.574Z,102635.53
2023-05-17T12:50:12.397Z,102624.28
2023-05-17T12:52:42.092Z,102628.88
2023-05-17T12:55:14.268Z,102631.78
2023-05-17T12:57:50.298Z,102635.53
2023-05-17T13:00:19.358Z,102624.72
2023-05-17T13:02:47.425Z,102617.63
2023-05-17T13:05:18.600Z,102627.63
2023-05-17T13:07:47.396Z,102619.91
2023-05-17T13:10:23.028Z,102623.22
2023-05-17T13:12:58.166Z,102609.66
2023-05-17T13:15:30.372Z,102619.63
2023-05-17T13:17:58.896Z,102615.03
2023-05-17T13:20:29.210Z,102619.63
2023-05-17T13:22:57.478Z,102619.44
2023-05-17T13:25:25.568Z,102609.63
2023-05-17T13:27:55.413Z,102622.13
2023-05-17T13:30:23.455Z,102608.78
2023-05-17T13:32:51.731Z,102617.34
2023-05-17T13:35:19.527Z,102612.53
2023-05-17T13:37:48.839Z,102612.09
2023-05-17T13:40:16.912Z,102602.94
2023-05-17T13:42:44.694Z,102608.97
2023-05-17T13:45:13.641Z,102597.28
2023-05-17T13:47:41.988Z,102607.09
2023-05-17T13:50:12.062Z,102601.03
2023-05-17T13:52:39.980Z,102603.13
2023-05-17T13:55:09.930Z,102605.41
2023-05-17T13:57:37.745Z,102606.00
2023-05-17T14:00:06.876Z,102609.13
2023-05-17T14:02:34.799Z,102611.63
2023-05-17T14:05:02.601Z,102600.78
2023-05-17T14:07:30.352Z,102598.69
2023-05-17T14:09:58.252Z,102602.22
2023-05-17T14:12:27.415Z,102594.72
2023-05-17T14:14:55.294Z,102603.69
2023-05-17T14:17:23.094Z,102609.94
2023-05-17T14:19:51.073Z,102611.16
2023-05-17T14:22:19.030Z,102611.78
2023-05-17T14:24:46.842Z,102614.28
2023-05-17T14:27:14.640Z,102609.91
2023-05-17T14:29:43.801Z,102621.81
2023-05-17T14:32:12.912Z,102613.66
2023-05-17T14:34:40.855Z,102623.69
2023-05-17T14:37:08.727Z,102624.72
2023-05-17T14:39:36.814Z,102622.03
2023-05-17T14:42:05.263Z,102599.50
2023-05-17T14:44:34.689Z,102609.28
2023-05-17T14:47:03.801Z,102615.34
2023-05-17T14:49:31.570Z,102609.69
2023-05-17T14:51:59.383Z,102613.03
2023-05-17T14:54:29.754Z,102608.22
2023-05-17T14:56:57.651Z,102617.19
2023-05-17T14:59:26.207Z,102611.53
2023-05-17T15:01:54.070Z,102606.72
2023-05-17T15:04:23.277Z,102618.41
2023-05-17T15:06:51.056Z,102623.22
2023-05-17T15:09:18.980Z,102622.41
2023-05-17T15:11:46.925Z,102623.88
2023-05-17T15:14:19.092Z,102617.63
2023-05-17T15:16:47.070Z,102607.19
2023-05-17T15:19:15.439Z,102614.50
2023-05-17T15:21:44.864Z,102614.94
2023-05-17T15:24:14.367Z,102611.81
2023-05-17T15:26:44.397Z,102618.06
2023-05-17T15:29:12.228Z,102600.34
2023-05-17T15:31:40.068Z,102613.28
2023-05-17T15:34:08.670Z,102605.16
2023-05-17T15:36:36.577Z,102605.78
2023-05-17T15:39:06.017Z,102598.28
2023-05-17T15:41:33.755Z,102601.81
2023-05-17T15:44:01.782Z,102610.56
2023-05-17T15:46:29.556Z,102595.94
2023-05-17T15:48:57.907Z,102608.88
2023-05-17T15:51:25.739Z,102614.53
2023-05-17T15:53:53.540Z,102613.91
2023-05-17T15:56:23.229Z,102614.13
2023-05-17T15:58:51.605Z,102611.41
2023-05-17T16:01:19.641Z,102610.59
2023-05-17T16:03:47.556Z,102610.78
2023-05-17T16:06:15.711Z,102622.47
2023-05-17T16:08:43.628Z,102611.22
2023-05-17T16:11:11.403Z,102605.81
2023-05-17T16:13:40.576Z,102616.03
2023-05-17T16:16:08.362Z,102608.31
2023-05-17T16:18:36.226Z,102605.81
2023-05-17T16:21:05.393Z,102600.41
2023-05-17T16:23:33.580Z,102600.41
2023-05-17T16:26:01.494Z,102594.38
2023-05-17T16:28:29.443Z,102603.31
2023-05-17T16:30:58.692Z,102604.16
2023-05-17T16:33:26.780Z,102607.91
2023-05-17T16:35:54.926Z,102600.84
2023-05-17T16:38:22.701Z,102606.03
2023-05-17T16:40:50.489Z,102615.84
2023-05-17T16:43:18.256Z,102610.41
2023-05-17T16:45:46.453Z,102613.75
2023-05-17T16:48:16.052Z,102611.88
2023-05-17T16:50:43.946Z,102612.69
2023-05-17T16:53:12.028Z,102613.97
2023-05-17T16:55:39.789Z,102613.34
2023-05-17T16:58:07.564Z,102616.28
2023-05-17T17:00:35.735Z,102618.34
2023-05-17T17:03:04.731Z,102624.63
2023-05-17T17:05:35.025Z,102618.34
2023-05-17T17:08:02.845Z,102608.56
2023-05-17T17:10:31.071Z,102620.44
2023-05-17T17:12:59.135Z,102617.75
2023-05-17T17:15:27.361Z,102611.69
2023-05-17T17:17:55.181Z,102609.81
2023-05-17T17:20:23.155Z,102610.03
2023-05-17T17:22:52.283Z,102617.53
2023-05-17T17:25:20.206Z,102619.03
2023-05-17T17:27:48.034Z,102621.09
2023-05-17T17:30:16.103Z,102616.94
2023-05-17T17:32:43.965Z,102619.44
2023-05-17T17:35:11.784Z,102618.41
2023-05-17T17:37:39.532Z,102628.81
2023-05-17T17:40:10.346Z,102621.31
2023-05-17T17:42:38.148Z,102629.22
2023-05-17T17:45:06.992Z,102624.63
2023-05-17T17:47:34.795Z,102630.47
2023-05-17T17:50:02.723Z,102624.00
2023-05-17T17:52:30.554Z,102628.38
2023-05-17T17:54:58.337Z,102619.22
2023-05-17T17:57:27.513Z,102629.84
2023-05-17T17:59:56.206Z,102618.16
2023-05-17T18:02:23.968Z,102627.34
2023-05-17T18:04:51.778Z,102631.31
2023-05-17T18:07:19.705Z,102631.53
2023-05-17T18:09:47.480Z,102632.56
2023-05-17T18:12:15.358Z,102629.66
2023-05-17T18:14:44.512Z,102635.06
2023-05-17T18:17:12.279Z,102630.69
2023-05-17T18:19:40.085Z,102627.97
2023-05-17T18:22:07.875Z,102631.75
2023-05-17T18:24:35.669Z,102637.16
2023-05-17T18:27:03.654Z,102624.66
2023-05-17T18:29:31.523Z,102639.88
2023-05-17T18:32:01.620Z,102628.41
2023-05-17T18:34:29.464Z,102623.22
2023-05-17T18:36:57.210Z,102635.09
2023-05-17T18:39:25.027Z,102634.47
2023-05-17T18:41:52.845Z,102634.69
2023-05-17T18:44:20.852Z,102634.88
2023-05-17T18:46:49.616Z,102639.72
2023-05-17T18:49:18.767Z,102634.28
2023-05-17T18:51:46.565Z,102640.75
2023-05-17T18:54:14.474Z,102634.72
2023-05-17T18:56:42.209Z,102641.97
2023-05-17T18:59:09.975Z,102630.53
2023-05-17T19:01:38.028Z,102639.47
2023-05-17T19:04:05.898Z,102643.25
2023-05-17T19:06:35.109Z,102651.38
2023-05-17T19:09:02.970Z,102650.53
2023-05-17T19:11:30.769Z,102654.28
2023-05-17T19:13:58.595Z,102653.47
2023-05-17T19:16:26.459Z,102658.25
2023-05-17T19:18:54.294Z,102657.41
2023-05-17T19:21:22.200Z,102655.75
2023-05-17T19:23:51.307Z,102661.19
2023-05-17T19:26:19.117Z,102665.97
2023-05-17T19:28:46.870Z,102660.75
2023-05-17T19:31:14.605Z,102665.34
2023-05-17T19:33:42.404Z,102658.25
2023-05-17T19:36:10.169Z,102664.72
2023-05-17T19:38:37.970Z,102673.91
2023-05-17T19:41:07.481Z,102673.91
2023-05-17T19:43:35.757Z,102673.06
2023-05-17T19:46:03.862Z,102671.41
2023-05-17T19:48:31.676Z,102675.16
2023-05-17T19:50:59.489Z,102679.94
2023-05-17T19:53:28.637Z,102683.06
2023-05-17T19:56:05.571Z,102677.84
2023-05-17T19:58:35.043Z,102685.34
2023-05-17T20:01:02.869Z,102685.56
2023-05-17T20:03:30.869Z,102685.78
2023-05-17T20:05:58.727Z,102691.41
2023-05-17T20:08:26.507Z,102695.97
2023-05-17T20:10:54.271Z,102688.06
2023-05-17T20:13:24.781Z,102691.81
2023-05-17T20:15:53.937Z,102693.69
2023-05-17T20:18:22.140Z,102701.81
2023-05-17T20:20:50.784Z,102698.47
2023-05-17T20:23:18.642Z,102691.41
2023-05-17T20:25:46.381Z,102696.19
2023-05-17T20:28:14.118Z,102687.44
2023-05-17T20:30:44.575Z,102685.75
2023-05-17T20:33:13.951Z,102681.59
2023-05-17T20:35:41.670Z,102688.06
2023-05-17T20:38:09.698Z,102696.38
2023-05-17T20:40:37.614Z,102687.63
2023-05-17T20:43:09.733Z,102685.97
2023-05-17T20:45:37.752Z,102682.84
2023-05-17T20:48:05.592Z,102680.13
2023-05-17T20:50:37.164Z,102686.78
2023-05-17T20:53:04.934Z,102687.00
2023-05-17T20:55:32.660Z,102691.59
2023-05-17T20:58:00.394Z,102694.50
2023-05-17T21:00:28.488Z,102690.13
2023-05-17T21:02:56.479Z,102688.44
2023-05-17T21:05:24.440Z,102693.03
2023-05-17T21:07:53.559Z,102690.53
2023-05-17T21:10:21.277Z,102696.97
2023-05-17T21:12:49.058Z,102690.31
2023-05-17T21:15:17.490Z,102695.31
2023-05-17T21:17:45.470Z,102691.97
2023-05-17T21:20:13.859Z,102697.41
2023-05-17T21:22:41.692Z,102695.09
2023-05-17T21:25:11.349Z,102697.81
2023-05-17T21:27:39.085Z,102690.94
2023-05-17T21:30:08.263Z,102693.00
2023-05-17T21:32:36.107Z,102693.00
2023-05-17T21:35:04.091Z,102687.78
2023-05-17T21:37:31.815Z,102698.00
2023-05-17T21:39:59.576Z,102699.88
2023-05-17T21:42:28.691Z,102697.38
2023-05-17T21:44:56.481Z,102694.22
2023-05-17T21:47:24.980Z,102696.09
2023-05-17T21:49:52.849Z,102693.59
2023-05-17T21:52:20.649Z,102687.97
2023-05-17T21:54:48.688Z,102692.97
2023-05-17T21:57:16.410Z,102695.03
2023-05-17T21:59:46.022Z,102672.94
2023-05-17T22:02:13.925Z,102693.78
2023-05-17T22:04:41.747Z,102693.16
2023-05-17T22:07:10.291Z,102691.69
2023-05-17T22:09:38.121Z,102694.59
2023-05-17T22:12:08.428Z,102690.41
2023-05-17T22:14:36.502Z,102690.84
2023-05-17T22:17:08.529Z,102687.50
2023-05-17T22:19:40.371Z,102688.72
2023-05-17T22:22:08.689Z,102694.13
2023-05-17T22:24:36.483Z,102692.47
2023-05-17T22:27:04.814Z,102688.09
2023-05-17T22:29:33.246Z,102689.97
2023-05-17T22:32:01.142Z,102692.00
2023-05-17T22:34:30.381Z,102692.00
2023-05-17T22:36:58.362Z,102696.59
2023-05-17T22:39:26.123Z,102691.38
2023-05-17T22:41:53.909Z,102693.66
2023-05-17T22:44:22.135Z,102697.19
2023-05-17T22:46:49.962Z,102699.25
2023-05-17T22:49:18.515Z,102701.13
2023-05-17T22:51:47.863Z,102700.50
2023-05-17T22:54:15.827Z,102696.13
2023-05-17T22:56:43.580Z,102698.00
2023-05-17T22:59:11.589Z,102704.25
2023-05-17T23:01:39.457Z,102707.16
2023-05-17T23:04:07.679Z,102700.28
2023-05-17T23:06:35.539Z,102700.47
2023-05-17T23:09:05.419Z,102700.66
2023-05-17T23:11:35.040Z,102694.00
2023-05-17T23:14:02.938Z,102694.41
2023-05-17T23:16:30.762Z,102701.66
2023-05-17T23:19:00.120Z,102695.63
2023-05-17T23:21:27.964Z,102696.88
2023-05-17T23:23:56.035Z,102700.59
2023-05-17T23:26:25.153Z,102704.53
2023-05-17T23:28:53.622Z,102701.84
2023-05-17T23:31:21.739Z,102702.03
2023-05-17T23:33:49.539Z,102697.66
2023-05-17T23:36:17.305Z,102705.97
2023-05-17T23:38:45.015Z,102702.00
2023-05-17T23:41:17.925Z,102687.81
2023-05-17T23:43:47.731Z,102701.56
2023-05-17T23:46:19.992Z,102706.53
2023-05-17T23:48:50.430Z,102705.69
2023-05-17T23:51:19.827Z,102705.88
2023-05-17T23:53:48.975Z,102698.81
2023-05-17T23:56:17.773Z,102700.91
2023-05-17T23:58:47.204Z,102702.97
